Abadan, Iran

12:42 AM IRST on October 21, 2014 (GMT +0330)
Abadan | Change Station
CLOSE
Current Station
Airport
Location: Abadan,
Elevation: 10 ft
Nearby Weather Stations

Elev 10 ft 30.37 °N, 48.25 °E | Updated 12 minutes ago

Mostly Cloudy
Mostly Cloudy
84 °F
Feels Like 94 °F
N
9
Wind Variable Wind from NW

Today
High -- | Low -- °F
--% Chance of Precip.
Yesterday
High -- | Low -- °F
Precip. -- in
6:22 AM 5:39 PM
Waning Crescent, 9% visible
Pressure 29.77 in
Visibility 3.1 miles
Clouds Scattered Clouds 4000 ft
Mostly Cloudy 10000 ft
Heat Index 94 °F
Dew Point 77 °F
Humidity 79%
Rainfall 0.00 in
Snow Depth Not available.
UV 0 out of 12
Pollen Not available.
Air Quality Not available.
Flu Activity Not available.
METAR OIAA 202100Z 31008KT 5000 DU SCT040 BKN100 29/25 Q1008

More Conditions Fewer Conditions

Pressure 29.77 in
Visibility 3.1 miles
Clouds Scattered Clouds 4000 ft
Mostly Cloudy 10000 ft
Heat Index 94 °F
Dew Point 77 °F
Humidity 79%
Rainfall 0.00 in
Snow Depth Not available.
UV 0 out of 12
Pollen Not available.
Air Quality Not available.
Flu Activity Not available.
METAR OIAA 202100Z 31008KT 5000 DU SCT040 BKN100 29/25 Q1008

More Conditions Fewer Conditions

10-Day Weather Forecast

Almanac

Astronomy

Oct. 21, 2014 Rise Set
Actual Time 6:22 AM IRST 5:39 PM IRST
Civil Twilight 5:58 AM IRST 6:04 PM IRST
Nautical Twilight 5:30 AM IRST 6:32 PM IRST
Astronomical Twilight 5:02 AM IRST 7:00 PM IRST
Moon 3:56 AM IRST (10/21) 4:13 PM IRST (10/21)
Length of Visible Light 12h 05m
Length of Day
11h 16m
Tomorrow will be 1m 42s shorter.
Waning Crescent, 9% of the Moon is Illuminated
Oct 20
Waning Crescent
Oct 23
New
Oct 30
First Quarter
Nov 6
Full
Nov 14
Last Quarter

Yesterday's Extremes

Country Highs Country Lows

Community

WunderPhotos

Upload Photos

1,763,510 photos uploaded!

WunderBlogs® & News

By Dr. Jeff Masters
Director of Meteorology, Weather Underground
By Kari Strenfel
Meteorologist, Weather Underground
By Christopher C. Burt
Weather Historian, Weather Underground
October 20, 2014
October 20, 2014
October 20, 2014

Nearby

Snow Depth

Not available.

Earthquake Activity

City Distance Mag. Time & Date
No recent earthquake activity has been reported nearby.
Minimum magnitude displayed is 2.5.

Coastal Water Temperatures

Place Temperature
No Stations Reporting

Nearby Weather Stations